Time;durP1;ratioP1;P1;durP2;ratioP2;P2;SDS_P1;SDS_P2;PMS_P1;PMS_P2;Temp;Humidity;BMP_temperature;BMP_pressure;BME280_temperature;BME280_humidity;BME280_pressure;Samples;Min_cycle;Max_cycle;Signal;HPM_P1;HPM_P2
2022/10/21 00:01:33;;;;;;;12.63;7.57;;;;;;;16.54;90.76;100116.00;4988962;28;20398;-76
2022/10/21 00:04:01;;;;;;;13.77;7.27;;;;;;;16.51;91.05;100118.50;4984488;28;20835;-76
2022/10/21 00:06:26;;;;;;;11.20;8.20;;;;;;;16.52;91.01;100122.88;4973318;28;20456;-76
2022/10/21 00:08:52;;;;;;;9.90;7.70;;;;;;;16.52;91.17;100125.63;4989051;28;20502;-76
2022/10/21 00:11:17;;;;;;;12.87;7.63;;;;;;;16.54;91.09;100121.47;4989950;28;20399;-76
2022/10/21 00:13:43;;;;;;;11.80;7.70;;;;;;;16.51;91.29;100143.13;4989159;28;20414;-76
2022/10/21 00:16:11;;;;;;;14.37;7.30;;;;;;;16.48;91.46;100141.81;4988885;28;20418;-76
2022/10/21 00:18:38;;;;;;;12.25;7.57;;;;;;;16.46;91.41;100122.16;4988798;28;20405;-76
2022/10/21 00:21:10;;;;;;;13.25;7.45;;;;;;;16.51;91.29;100151.34;4993238;28;20406;-76
2022/10/21 00:23:35;;;;;;;16.48;7.82;;;;;;;16.53;91.30;100149.94;4993562;28;20407;-76
2022/10/21 00:26:01;;;;;;;20.40;8.97;;;;;;;16.50;91.45;100146.97;4986165;28;20419;-76
2022/10/21 00:28:27;;;;;;;13.38;9.10;;;;;;;16.53;91.37;100151.88;4986258;28;20927;-76
2022/10/21 00:30:52;;;;;;;21.10;10.30;;;;;;;16.52;91.65;100139.31;4974088;28;20789;-76
2022/10/21 00:33:18;;;;;;;14.53;9.57;;;;;;;16.52;91.57;100137.38;4989855;28;20863;-76
2022/10/21 00:35:49;;;;;;;12.70;9.30;;;;;;;16.54;91.64;100148.84;4973413;28;20555;-76
2022/10/21 00:38:15;;;;;;;27.35;10.05;;;;;;;16.54;91.44;100137.91;4987577;28;20394;-76
2022/10/21 00:40:40;;;;;;;14.13;9.40;;;;;;;16.54;91.66;100118.75;4975915;28;20410;-76
2022/10/21 00:43:05;;;;;;;14.03;10.63;;;;;;;16.52;91.70;100114.69;4987100;28;20980;-76
2022/10/21 00:45:31;;;;;;;12.83;9.30;;;;;;;16.52;91.67;100084.59;4988362;28;20426;-76
2022/10/21 00:48:04;;;;;;;19.20;10.18;;;;;;;16.53;91.54;100067.88;4970614;28;20408;-76
2022/10/21 00:50:38;;;;;;;13.77;9.73;;;;;;;16.55;91.28;100081.31;4980677;28;20419;-76
2022/10/21 00:53:06;;;;;;;16.52;8.70;;;;;;;16.54;91.28;100085.09;4975753;28;20778;-76
2022/10/21 00:55:35;;;;;;;13.73;9.90;;;;;;;16.53;91.18;100089.75;4979392;28;20427;-76
2022/10/21 00:58:02;;;;;;;15.00;10.13;;;;;;;16.52;91.13;100071.72;4954270;28;20406;-76
2022/10/21 01:00:28;;;;;;;14.30;9.77;;;;;;;16.54;91.22;100052.28;4993515;28;20399;-76
2022/10/21 01:02:54;;;;;;;15.23;9.03;;;;;;;16.56;90.88;100053.63;4983505;28;20406;-76
2022/10/21 01:05:21;;;;;;;12.87;9.50;;;;;;;16.54;90.88;100050.34;4992952;28;20425;-76
2022/10/21 01:07:50;;;;;;;17.27;10.18;;;;;;;16.54;90.89;100049.53;4987996;28;20461;-76
2022/10/21 01:10:16;;;;;;;16.07;10.47;;;;;;;16.56;90.88;100050.13;4987624;28;20425;-76
2022/10/21 01:13:03;;;;;;;13.85;9.05;;;;;;;16.56;90.78;100022.75;4988294;28;20421;-76
2022/10/21 01:15:40;;;;;;;14.83;9.27;;;;;;;16.56;90.64;100014.56;4991912;28;20434;-76
2022/10/21 01:18:22;;;;;;;14.13;9.67;;;;;;;16.56;90.58;100011.81;4984983;28;20406;-76
2022/10/21 01:21:04;;;;;;;13.32;10.18;;;;;;;16.50;90.70;99999.25;4985695;28;20392;-76
2022/10/21 01:24:08;;;;;;;15.10;9.50;;;;;;;16.47;90.71;99992.47;4990281;28;20557;-76
2022/10/21 01:27:01;;;;;;;13.45;9.57;;;;;;;16.43;90.63;99985.16;4971860;28;20418;-76
2022/10/21 01:29:45;;;;;;;14.35;8.68;;;;;;;16.41;90.74;99988.19;4993002;28;20842;-76
2022/10/21 01:32:36;;;;;;;16.20;8.90;;;;;;;16.34;90.91;99998.66;4981397;28;20946;-76
2022/10/21 01:35:53;;;;;;;17.98;9.43;;;;;;;16.31;90.84;99991.03;4986125;28;20451;-76
2022/10/21 01:38:32;;;;;;;19.25;10.63;;;;;;;16.30;90.91;99985.88;4909983;29;20421;-76
2022/10/21 01:41:12;;;;;;;14.75;9.80;;;;;;;16.27;91.01;99970.06;4912516;29;20409;-76
2022/10/21 01:43:49;;;;;;;16.10;9.18;;;;;;;16.25;91.13;99972.25;4954028;28;20489;-76
2022/10/21 01:46:22;;;;;;;11.23;8.95;;;;;;;16.24;91.02;99963.25;4983544;28;20415;-76
2022/10/21 01:48:54;;;;;;;13.95;9.25;;;;;;;16.22;90.94;99961.91;4988094;28;20454;-76
2022/10/21 01:51:23;;;;;;;15.13;8.27;;;;;;;16.21;91.08;99961.09;4988923;28;20434;-76
2022/10/21 01:53:57;;;;;;;14.23;9.23;;;;;;;16.22;90.98;99968.22;4985604;28;20420;-76
2022/10/21 01:56:24;;;;;;;11.95;8.35;;;;;;;16.22;90.87;99967.38;4992127;28;20754;-76
2022/10/21 01:58:51;;;;;;;12.27;8.57;;;;;;;16.22;90.71;99961.91;4981195;28;20415;-76
2022/10/21 02:01:18;;;;;;;17.93;9.37;;;;;;;16.21;90.81;99963.03;4985271;28;20468;-76
2022/10/21 02:03:48;;;;;;;13.13;8.87;;;;;;;16.21;90.78;99963.03;4983555;28;20476;-76
2022/10/21 02:06:14;;;;;;;14.67;8.87;;;;;;;16.23;90.69;99953.44;4982922;28;20424;-76
2022/10/21 02:08:40;;;;;;;11.60;8.30;;;;;;;16.24;90.45;99951.50;4985946;28;20470;-76
2022/10/21 02:11:08;;;;;;;14.43;8.95;;;;;;;16.24;90.46;99943.28;4990660;28;20798;-76
2022/10/21 02:14:07;;;;;;;12.57;8.70;;;;;;;16.23;90.58;99941.69;4974182;28;20403;-76
2022/10/21 02:16:37;;;;;;;14.30;9.30;;;;;;;16.23;90.39;99936.22;4987111;28;20437;-76
2022/10/21 02:19:04;;;;;;;12.52;9.27;;;;;;;16.24;90.21;99919.50;4990068;28;20413;-76
2022/10/21 02:21:34;;;;;;;14.20;8.88;;;;;;;16.20;90.44;99910.25;4986760;28;20409;-76
2022/10/21 02:24:07;;;;;;;15.82;9.50;;;;;;;16.22;90.41;99908.06;4992072;28;20901;-76
2022/10/21 02:26:32;;;;;;;15.60;10.23;;;;;;;16.19;90.54;99894.97;4969167;28;20449;-76
2022/10/21 02:28:59;;;;;;;13.20;9.70;;;;;;;16.18;90.48;99896.09;4994068;28;20411;-76
2022/10/21 02:31:52;;;;;;;14.07;10.43;;;;;;;16.20;90.42;99893.06;4990920;28;20410;-76
2022/10/21 02:34:36;;;;;;;16.77;10.80;;;;;;;16.19;90.30;99885.97;4990968;28;20410;-76
2022/10/21 02:37:16;;;;;;;20.05;11.13;;;;;;;16.19;90.17;99878.59;4994765;28;20412;-76
2022/10/21 02:39:54;;;;;;;17.42;11.63;;;;;;;16.19;90.20;99885.97;4986137;28;20755;-76
2022/10/21 02:42:26;;;;;;;16.38;11.85;;;;;;;16.19;90.57;99884.03;4983021;28;20502;-76
2022/10/21 02:44:52;;;;;;;13.32;10.10;;;;;;;16.21;90.23;99889.19;4973626;28;20465;-76
2022/10/21 02:47:18;;;;;;;11.13;8.53;;;;;;;16.21;90.19;99881.81;4989147;28;20410;-76
2022/10/21 02:49:44;;;;;;;11.63;8.73;;;;;;;16.20;90.43;99882.91;4986580;28;20416;-76
2022/10/21 02:52:09;;;;;;;11.63;8.55;;;;;;;16.22;90.34;99886.19;4997465;28;20843;-76
2022/10/21 02:54:35;;;;;;;9.30;8.33;;;;;;;16.23;90.21;99885.09;4991410;28;20463;-76
2022/10/21 02:57:00;;;;;;;13.97;8.27;;;;;;;16.25;90.19;99882.03;4989670;28;20410;-76
2022/10/21 02:59:25;;;;;;;15.13;8.30;;;;;;;16.25;90.10;99874.66;4989842;28;20580;-76
2022/10/21 03:01:51;;;;;;;15.07;8.10;;;;;;;16.24;90.28;99864.81;4992704;28;20398;-76
2022/10/21 03:04:16;;;;;;;14.63;9.05;;;;;;;16.22;90.41;99861.59;4974467;28;20421;-76
2022/10/21 03:06:42;;;;;;;12.63;8.17;;;;;;;16.20;90.43;99863.78;4968024;28;20468;-76
2022/10/21 03:09:07;;;;;;;15.03;10.93;;;;;;;16.22;90.39;99858.03;4985115;28;20407;-76
2022/10/21 03:11:32;;;;;;;14.52;10.82;;;;;;;16.22;90.33;99856.13;4998193;28;20493;-76
2022/10/21 03:13:57;;;;;;;11.40;9.33;;;;;;;16.17;90.47;99858.13;4994490;28;20406;-76
2022/10/21 03:16:23;;;;;;;10.83;9.17;;;;;;;16.14;90.48;99856.78;4991789;28;20877;-76
2022/10/21 03:18:48;;;;;;;13.00;9.02;;;;;;;16.10;90.63;99856.53;4990503;28;20406;-76
2022/10/21 03:21:13;;;;;;;12.37;7.97;;;;;;;16.06;90.73;99849.25;4985577;28;20482;-76
2022/10/21 03:23:39;;;;;;;10.80;8.00;;;;;;;16.05;90.76;99856.63;4992106;28;20405;-76
2022/10/21 03:26:04;;;;;;;11.00;7.80;;;;;;;16.06;90.75;99857.44;4988199;28;20444;-76
2022/10/21 03:28:29;;;;;;;12.10;8.07;;;;;;;16.06;90.80;99855.53;4993221;28;20578;-74
2022/10/21 03:30:57;;;;;;;11.33;8.43;;;;;;;16.07;90.69;99850.84;4991054;28;20499;-74
2022/10/21 03:33:22;;;;;;;11.43;8.68;;;;;;;16.08;90.69;99856.03;4986230;28;20901;-76
2022/10/21 03:35:48;;;;;;;8.97;8.00;;;;;;;16.07;90.76;99853.59;4993876;28;20506;-76
2022/10/21 03:38:13;;;;;;;11.17;8.33;;;;;;;16.08;90.72;99863.41;4990612;28;20475;-76
2022/10/21 03:40:38;;;;;;;12.73;8.63;;;;;;;16.12;90.60;99855.44;4993194;28;20447;-76
2022/10/21 03:43:04;;;;;;;13.70;9.23;;;;;;;16.12;90.75;99852.72;4992157;28;20415;-76
2022/10/21 03:45:29;;;;;;;14.43;9.47;;;;;;;16.10;90.63;99856.53;4991248;28;20414;-76
2022/10/21 03:47:54;;;;;;;14.73;10.57;;;;;;;16.12;90.67;99847.25;4999209;28;20831;-76
2022/10/21 03:50:20;;;;;;;14.70;9.98;;;;;;;16.12;90.76;99849.97;4994521;28;20403;-76
2022/10/21 03:52:45;;;;;;;13.77;10.43;;;;;;;16.12;90.67;99853.53;5000229;28;20758;-76
2022/10/21 03:55:11;;;;;;;18.15;10.75;;;;;;;16.07;90.84;99859.88;4993982;28;20912;-76
2022/10/21 03:57:39;;;;;;;17.27;11.07;;;;;;;16.05;91.10;99867.56;4994660;28;20766;-76
2022/10/21 04:00:05;;;;;;;13.18;10.32;;;;;;;16.07;91.04;99872.72;4986960;28;20460;-76
2022/10/21 04:02:30;;;;;;;13.25;9.68;;;;;;;16.06;91.02;99868.38;4989354;28;20452;-76
2022/10/21 04:04:55;;;;;;;11.20;8.85;;;;;;;16.08;90.71;99872.44;4991712;28;20411;-76
2022/10/21 04:07:21;;;;;;;13.43;8.77;;;;;;;16.08;90.75;99850.56;4963336;28;20505;-76
2022/10/21 04:09:46;;;;;;;11.57;8.80;;;;;;;16.06;90.90;99862.91;4985648;28;20407;-76
2022/10/21 04:12:11;;;;;;;14.00;9.17;;;;;;;16.09;90.87;99856.84;4992972;28;20425;-76
2022/10/21 04:14:37;;;;;;;11.73;8.27;;;;;;;16.07;90.89;99865.34;4987472;28;20417;-76
2022/10/21 04:17:02;;;;;;;16.17;9.60;;;;;;;16.08;90.81;99864.25;4991722;28;20417;-76
2022/10/21 04:19:27;;;;;;;11.53;9.07;;;;;;;16.10;90.75;99845.59;4993951;28;20884;-76
2022/10/21 04:21:52;;;;;;;13.10;8.87;;;;;;;16.07;90.88;99850.84;4992954;28;20469;-76
2022/10/21 04:24:18;;;;;;;13.10;10.43;;;;;;;16.07;90.85;99845.38;4999025;28;20508;-76
2022/10/21 04:26:43;;;;;;;20.97;13.70;;;;;;;16.05;90.71;99853.91;4985264;28;20784;-76
2022/10/21 04:29:09;;;;;;;22.87;16.67;;;;;;;16.02;91.03;99864.59;4989620;28;20423;-76
2022/10/21 04:31:34;;;;;;;14.85;11.38;;;;;;;16.02;91.03;99870.91;4983483;28;20893;-76
2022/10/21 04:34:00;;;;;;;14.33;11.10;;;;;;;16.03;90.98;99858.03;4980875;28;20406;-76
2022/10/21 04:36:25;;;;;;;10.07;9.18;;;;;;;16.06;90.70;99847.34;4980879;28;20410;-76
2022/10/21 04:38:50;;;;;;;9.23;8.03;;;;;;;16.06;90.61;99858.28;4979440;28;20516;-76
2022/10/21 04:41:16;;;;;;;9.13;8.23;;;;;;;16.02;90.71;99870.91;4985437;28;20402;-76
2022/10/21 04:43:41;;;;;;;13.07;8.13;;;;;;;15.97;90.79;99865.47;4984103;28;20774;-76
2022/10/21 04:46:14;;;;;;;10.23;7.77;;;;;;;15.96;90.64;99874.81;4984970;28;20418;-77
2022/10/21 04:48:39;;;;;;;9.15;7.40;;;;;;;15.90;90.92;99869.69;4987921;28;20406;-76
2022/10/21 04:51:04;;;;;;;7.83;7.03;;;;;;;15.87;91.04;99860.16;4986924;28;20893;-75
2022/10/21 04:53:30;;;;;;;7.43;6.60;;;;;;;15.87;91.03;99865.63;4987888;28;20434;-76
2022/10/21 04:55:55;;;;;;;10.07;7.23;;;;;;;15.85;91.01;99872.50;4984934;28;20445;-76
2022/10/21 04:58:21;;;;;;;7.77;6.97;;;;;;;15.82;91.28;99860.22;4979480;28;20418;-75
2022/10/21 05:00:46;;;;;;;9.90;8.65;;;;;;;15.81;91.22;99860.50;4976076;28;20426;-77
2022/10/21 05:03:12;;;;;;;12.83;8.20;;;;;;;15.81;91.37;99850.41;4976263;28;20418;-76
2022/10/21 05:05:37;;;;;;;9.30;8.47;;;;;;;15.84;91.02;99858.00;4975003;28;20414;-77
2022/10/21 05:08:02;;;;;;;9.43;8.43;;;;;;;15.85;90.92;99851.44;4979619;28;20413;-76
2022/10/21 05:10:29;;;;;;;11.73;8.77;;;;;;;15.88;91.00;99852.78;4988304;28;20412;-75
2022/10/21 05:12:56;;;;;;;9.18;8.27;;;;;;;15.89;90.77;99849.75;4978118;28;20420;-75
2022/10/21 05:15:21;;;;;;;8.55;7.72;;;;;;;15.92;90.54;99842.88;4980330;28;20412;-77
2022/10/21 05:17:47;;;;;;;8.95;7.50;;;;;;;15.92;90.48;99842.88;4979966;28;20421;-76
2022/10/21 05:20:12;;;;;;;9.70;8.00;;;;;;;15.90;90.39;99850.56;4975247;28;20410;-75
2022/10/21 05:22:37;;;;;;;10.07;9.10;;;;;;;15.90;90.25;99840.47;4980480;28;20904;-75
2022/10/21 05:25:03;;;;;;;8.97;8.03;;;;;;;15.94;90.22;99840.66;4986004;28;20423;-75
2022/10/21 05:27:28;;;;;;;12.70;9.43;;;;;;;15.94;90.17;99836.00;4989923;28;20456;-76
2022/10/21 05:29:54;;;;;;;11.70;8.27;;;;;;;15.96;90.09;99835.72;4979336;28;20486;-76
2022/10/21 05:32:19;;;;;;;10.97;9.13;;;;;;;15.95;90.11;99832.19;4980112;28;20834;-76
2022/10/21 05:34:44;;;;;;;13.37;9.67;;;;;;;15.94;90.22;99825.06;4981184;28;21505;-76
2022/10/21 05:37:10;;;;;;;13.43;9.60;;;;;;;15.94;90.23;99821.53;4979280;28;20503;-75
2022/10/21 05:39:35;;;;;;;12.60;9.45;;;;;;;15.89;90.51;99816.97;4978621;28;20422;-76
2022/10/21 05:42:01;;;;;;;13.07;9.80;;;;;;;15.86;90.79;99809.38;4982579;28;20493;-77
2022/10/21 05:44:26;;;;;;;11.50;8.60;;;;;;;15.85;90.91;99810.47;4980607;28;20420;-77
2022/10/21 05:46:51;;;;;;;11.50;8.87;;;;;;;15.81;91.14;99811.34;4977256;28;20895;-77
2022/10/21 05:49:16;;;;;;;9.50;8.53;;;;;;;15.83;91.14;99809.97;4980101;28;20425;-77
2022/10/21 05:51:43;;;;;;;12.80;8.73;;;;;;;15.85;91.08;99805.00;4973106;28;20418;-77
2022/10/21 05:54:09;;;;;;;10.90;8.48;;;;;;;15.87;91.12;99801.97;4975203;28;20420;-77
2022/10/21 05:56:34;;;;;;;12.47;8.50;;;;;;;15.88;90.80;99798.94;4971287;28;20524;-77
2022/10/21 05:58:59;;;;;;;13.23;8.23;;;;;;;15.91;90.88;99789.34;4971447;28;20424;-77
2022/10/21 06:01:24;;;;;;;12.23;8.57;;;;;;;15.92;90.80;99793.69;4984406;28;20419;-77
2022/10/21 06:03:50;;;;;;;10.63;8.17;;;;;;;15.89;90.96;99794.28;4986146;28;20801;-77
2022/10/21 06:06:17;;;;;;;10.88;8.48;;;;;;;15.89;90.99;99797.84;4982500;28;20474;-76
2022/10/21 06:08:42;;;;;;;10.65;7.88;;;;;;;15.90;91.03;99798.66;4978163;28;20501;-77
2022/10/21 06:11:11;;;;;;;13.47;7.73;;;;;;;15.92;91.04;99796.44;4990762;28;20537;-77
2022/10/21 06:13:37;;;;;;;15.57;9.70;;;;;;;15.91;90.97;99798.34;4991062;28;20497;-77
2022/10/21 06:16:04;;;;;;;10.40;8.95;;;;;;;15.93;91.01;99807.09;4979820;28;20429;-76
2022/10/21 06:18:30;;;;;;;10.80;8.90;;;;;;;15.94;91.07;99807.88;4982684;28;20421;-76
2022/10/21 06:20:55;;;;;;;10.70;8.33;;;;;;;15.93;91.00;99806.25;4990245;28;20485;-77
2022/10/21 06:23:23;;;;;;;10.23;8.07;;;;;;;15.94;91.04;99816.88;4978764;28;20416;-76
2022/10/21 06:25:59;;;;;;;10.50;8.45;;;;;;;15.94;90.98;99824.25;4979212;28;20430;-77
2022/10/21 06:28:25;;;;;;;11.23;8.73;;;;;;;15.94;90.95;99837.94;4986645;28;20889;-76
2022/10/21 06:30:51;;;;;;;9.43;8.25;;;;;;;15.91;91.22;99846.72;4987046;28;20409;-75
2022/10/21 06:33:16;;;;;;;12.10;9.27;;;;;;;15.89;91.28;99847.03;4988911;28;20433;-76
2022/10/21 06:35:42;;;;;;;12.50;8.15;;;;;;;15.90;91.40;99856.84;4983036;28;20497;-76
2022/10/21 06:38:07;;;;;;;10.20;8.43;;;;;;;15.93;91.53;99855.44;4988718;28;20410;-76
2022/10/21 06:40:32;;;;;;;11.13;8.30;;;;;;;15.90;91.47;99843.19;4989106;28;20416;-76
2022/10/21 06:42:58;;;;;;;13.52;8.50;;;;;;;15.88;91.59;99822.72;4990587;28;20414;-76
2022/10/21 06:45:23;;;;;;;14.73;8.07;;;;;;;15.89;91.71;99822.44;4989587;28;20983;-76
2022/10/21 06:47:48;;;;;;;15.77;8.63;;;;;;;15.98;91.51;99828.03;4991182;28;20417;-77
2022/10/21 06:50:14;;;;;;;13.70;8.35;;;;;;;16.00;91.53;99828.56;4989649;28;20450;-76
2022/10/21 06:52:39;;;;;;;12.00;7.93;;;;;;;16.01;91.35;99820.06;4990514;28;20454;-77
2022/10/21 06:55:05;;;;;;;9.63;8.00;;;;;;;16.03;91.37;99819.78;4991048;28;20472;-77
2022/10/21 06:57:30;;;;;;;14.30;8.15;;;;;;;16.04;91.27;99814.00;4986983;28;20400;-76
2022/10/21 06:59:56;;;;;;;11.70;8.10;;;;;;;16.04;91.53;99830.41;4985600;28;20469;-76
2022/10/21 07:02:23;;;;;;;12.03;8.00;;;;;;;16.06;91.50;99835.59;4989749;28;20410;-77
2022/10/21 07:04:48;;;;;;;13.75;7.80;;;;;;;16.08;91.37;99839.63;4983858;28;20518;-77
2022/10/21 07:07:14;;;;;;;12.93;8.35;;;;;;;16.11;91.29;99851.91;4989427;28;20410;-77
2022/10/21 07:09:39;;;;;;;11.23;7.30;;;;;;;16.12;91.24;99860.91;4990904;28;20617;-76
2022/10/21 07:12:04;;;;;;;12.90;7.03;;;;;;;16.10;91.49;99858.50;4991147;28;20490;-77
2022/10/21 07:14:30;;;;;;;18.50;7.67;;;;;;;16.13;91.67;99854.34;4986492;28;20402;-77
2022/10/21 07:16:55;;;;;;;13.20;7.53;;;;;;;16.16;91.55;99840.09;4991247;28;20770;-77
2022/10/21 07:19:20;;;;;;;11.77;7.30;;;;;;;16.20;91.51;99847.38;4985522;28;20417;-77
2022/10/21 07:21:46;;;;;;;13.10;6.97;;;;;;;16.24;91.37;99856.63;4991286;28;20418;-77
2022/10/21 07:24:11;;;;;;;15.25;6.90;;;;;;;16.26;91.35;99851.69;4988311;28;20408;-77
2022/10/21 07:26:38;;;;;;;11.80;7.30;;;;;;;16.26;91.28;99854.41;4988282;28;20426;-77
2022/10/21 07:29:04;;;;;;;14.05;7.03;;;;;;;16.31;91.20;99858.97;4987671;28;20422;-77
2022/10/21 07:31:32;;;;;;;10.45;6.57;;;;;;;16.31;91.30;99850.78;4990267;28;20411;-76
2022/10/21 07:33:59;;;;;;;14.15;6.93;;;;;;;16.31;91.33;99859.78;4985341;28;20405;-77
2022/10/21 07:36:27;;;;;;;9.63;6.22;;;;;;;16.33;91.23;99868.53;4985788;28;20418;-76
2022/10/21 07:38:55;;;;;;;10.27;6.88;;;;;;;16.36;90.95;99878.06;4993068;28;20411;-77
2022/10/21 07:41:27;;;;;;;14.75;7.75;;;;;;;16.34;91.45;99885.72;4992859;28;20469;-77
2022/10/21 07:43:53;;;;;;;16.52;8.07;;;;;;;16.33;91.65;99882.22;4983893;28;20423;-76
2022/10/21 07:46:20;;;;;;;12.43;6.87;;;;;;;16.36;91.56;99889.00;4985077;28;20478;-77
2022/10/21 07:48:46;;;;;;;13.10;7.55;;;;;;;16.37;91.55;99887.88;4992866;28;20885;-76
2022/10/21 07:51:15;;;;;;;14.43;7.70;;;;;;;16.37;91.74;99872.28;4989628;28;20420;-77
2022/10/21 07:53:40;;;;;;;12.02;6.95;;;;;;;16.38;91.57;99873.91;4988247;28;20395;-77
2022/10/21 07:56:18;;;;;;;11.07;6.57;;;;;;;16.41;91.61;99897.94;4993331;28;20421;-77
2022/10/21 07:58:45;;;;;;;12.63;6.97;;;;;;;16.36;91.63;99891.72;4992170;28;20505;-77
2022/10/21 08:01:12;;;;;;;15.70;7.50;;;;;;;16.36;92.03;99887.06;4994376;28;20438;-77
2022/10/21 08:03:38;;;;;;;14.43;7.80;;;;;;;16.38;91.95;99895.78;4983254;28;20409;-76
2022/10/21 08:06:05;;;;;;;17.10;7.25;;;;;;;16.38;92.14;99908.66;4991043;28;20427;-76
2022/10/21 08:08:32;;;;;;;11.23;8.13;;;;;;;16.39;92.19;99904.81;4990335;28;20414;-77
2022/10/21 08:10:57;;;;;;;13.25;8.23;;;;;;;16.41;92.11;99906.13;4991737;28;20418;-76
2022/10/21 08:13:23;;;;;;;13.67;7.47;;;;;;;16.38;92.23;99900.44;4987502;28;20514;-76
2022/10/21 08:15:51;;;;;;;13.17;7.23;;;;;;;16.34;92.63;99902.94;4975058;28;20441;-77
2022/10/21 08:18:17;;;;;;;14.30;6.88;;;;;;;16.33;92.74;99915.03;4991090;28;20468;-76
2022/10/21 08:20:43;;;;;;;12.73;7.07;;;;;;;16.28;93.24;99925.19;4992097;28;20832;-77
2022/10/21 08:23:10;;;;;;;10.75;6.75;;;;;;;16.27;93.39;99943.50;4988650;28;20436;-77
2022/10/21 08:25:35;;;;;;;8.97;6.60;;;;;;;16.31;93.56;99946.47;4993656;28;20433;-77
2022/10/21 08:28:02;;;;;;;16.13;6.87;;;;;;;16.38;93.32;99946.94;4972816;28;20921;-77
2022/10/21 08:30:30;;;;;;;14.10;7.10;;;;;;;16.39;93.40;99934.88;4993047;28;20418;-77
2022/10/21 08:32:55;;;;;;;16.85;7.10;;;;;;;16.43;93.20;99938.66;4983381;28;20499;-77
2022/10/21 08:35:21;;;;;;;12.67;6.63;;;;;;;16.42;93.37;99958.91;4991900;28;20501;-77
2022/10/21 08:37:47;;;;;;;11.60;7.07;;;;;;;16.41;93.56;99951.81;4994038;28;20429;-76
2022/10/21 08:40:13;;;;;;;10.90;6.63;;;;;;;16.44;93.83;99938.34;4992258;28;23048;-77
2022/10/21 08:42:41;;;;;;;12.63;6.65;;;;;;;16.49;93.60;99942.94;4992443;28;20473;-77
2022/10/21 08:45:18;;;;;;;15.38;6.68;;;;;;;16.56;93.49;99940.69;4988000;28;20971;-77
2022/10/21 08:47:49;;;;;;;10.95;6.10;;;;;;;16.61;93.53;99943.34;4971337;28;20404;-77
2022/10/21 08:50:19;;;;;;;11.95;6.32;;;;;;;16.63;93.50;99949.31;4988306;28;20556;-77
2022/10/21 08:52:53;;;;;;;13.57;6.35;;;;;;;16.65;93.80;99954.50;4981722;28;20430;-82
2022/10/21 08:55:24;;;;;;;9.88;5.90;;;;;;;16.64;93.94;99967.34;4991305;28;20781;-77
2022/10/21 08:57:52;;;;;;;12.85;6.50;;;;;;;16.66;94.03;99958.88;4983281;28;20936;-80
2022/10/21 09:00:24;;;;;;;19.15;6.97;;;;;;;16.67;94.20;99955.00;4990014;28;20916;-82
2022/10/21 09:03:17;;;;;;;13.45;6.35;;;;;;;16.69;94.24;99964.56;4961839;28;20500;-80
2022/10/21 09:06:00;;;;;;;18.42;6.05;;;;;;;16.70;94.43;99971.63;4987502;28;20428;-83
2022/10/21 09:08:31;;;;;;;13.93;7.00;;;;;;;16.77;94.39;99966.59;4990719;28;20913;-76
2022/10/21 09:11:02;;;;;;;14.32;6.25;;;;;;;16.83;94.31;99975.53;4988258;28;20416;-77
2022/10/21 09:13:53;;;;;;;10.15;5.88;;;;;;;16.85;94.51;99968.69;4990049;28;20501;-77
2022/10/21 09:17:00;;;;;;;15.45;5.70;;;;;;;16.89;94.54;99963.44;4985715;28;20418;-77
2022/10/21 09:19:52;;;;;;;10.27;5.53;;;;;;;16.93;94.62;99965.25;4982167;28;20420;-78
2022/10/21 09:22:35;;;;;;;12.50;5.55;;;;;;;16.99;94.38;99968.75;4980509;28;20414;-77
2022/10/21 09:25:28;;;;;;;9.75;5.50;;;;;;;17.02;94.35;99977.16;4974474;28;20842;-76
2022/10/21 09:27:55;;;;;;;8.85;5.35;;;;;;;17.04;94.44;99977.69;4990221;28;20410;-77
2022/10/21 09:30:21;;;;;;;11.45;5.03;;;;;;;17.07;94.33;99984.47;4989105;28;20496;-76
2022/10/21 09:32:49;;;;;;;11.43;5.23;;;;;;;17.08;94.23;99978.72;4987862;28;20422;-76
2022/10/21 09:35:47;;;;;;;7.57;4.63;;;;;;;17.10;94.28;99983.88;4983802;28;20991;-76
2022/10/21 09:38:26;;;;;;;7.03;4.45;;;;;;;17.01;94.74;99983.75;4987157;28;20452;-77
2022/10/21 09:41:00;;;;;;;7.35;4.03;;;;;;;17.02;94.95;99984.56;4973080;28;20420;-77
2022/10/21 09:43:26;;;;;;;5.55;3.75;;;;;;;17.08;94.94;99991.59;4992544;28;20505;-76
2022/10/21 09:45:52;;;;;;;5.78;4.00;;;;;;;17.09;94.76;99988.53;4990985;28;20422;-77
2022/10/21 09:48:20;;;;;;;10.85;3.75;;;;;;;17.11;94.48;99990.97;4980630;28;20442;-77
2022/10/21 09:50:55;;;;;;;5.28;3.53;;;;;;;17.15;94.50;99996.66;4978946;28;20882;-77
2022/10/21 09:53:29;;;;;;;4.25;2.90;;;;;;;17.19;94.40;100003.19;4991844;28;20409;-77
2022/10/21 09:56:02;;;;;;;7.65;2.85;;;;;;;17.23;94.25;99998.72;4983571;28;20408;-76
2022/10/21 09:58:42;;;;;;;3.65;2.55;;;;;;;17.24;94.13;99990.22;4995962;28;20766;-76
2022/10/21 10:01:14;;;;;;;4.63;2.53;;;;;;;17.25;94.07;100000.06;4991453;28;21020;-77
2022/10/21 10:03:45;;;;;;;3.90;2.55;;;;;;;17.26;94.47;99992.63;4983820;28;20396;-77
2022/10/21 10:06:11;;;;;;;8.10;2.67;;;;;;;17.26;94.25;99993.44;4963982;28;20426;-76
2022/10/21 10:08:46;;;;;;;6.80;2.50;;;;;;;17.26;94.34;99996.19;4985319;28;20407;-77
2022/10/21 10:17:56;;;;;;;4.15;1.67;;;;;;;17.36;93.97;100009.72;4990225;28;20460;-77
2022/10/21 10:20:22;;;;;;;2.78;1.55;;;;;;;17.36;94.10;99998.75;4989611;28;20410;-77
2022/10/21 10:22:59;;;;;;;3.28;2.40;;;;;;;17.44;93.83;100014.50;4986007;28;20410;-77
2022/10/21 10:25:30;;;;;;;7.47;2.17;;;;;;;17.48;93.47;100026.50;4981784;28;20889;-77
2022/10/21 10:28:02;;;;;;;5.43;1.60;;;;;;;17.54;93.11;100013.50;4988787;28;20457;-77
2022/10/21 10:30:44;;;;;;;4.47;2.15;;;;;;;17.61;93.12;100014.78;4990371;28;20415;-77
2022/10/21 10:33:15;;;;;;;4.40;1.75;;;;;;;17.66;93.05;100013.88;4981571;28;20416;-77
2022/10/21 10:35:47;;;;;;;4.50;1.83;;;;;;;17.69;92.99;100018.75;4987572;28;20464;-80
2022/10/21 10:38:38;;;;;;;2.65;1.85;;;;;;;17.69;93.01;100009.69;4991100;28;20418;-77
2022/10/21 10:41:07;;;;;;;4.65;1.85;;;;;;;17.71;92.64;100018.44;4972642;28;20404;-77
2022/10/21 10:53:37;;;;;;;4.57;2.00;;;;;;;17.71;93.10;99993.78;4980536;28;20403;-77
2022/10/21 10:56:17;;;;;;;3.70;1.93;;;;;;;17.82;92.39;99996.00;4984685;28;20427;-77
2022/10/21 10:59:00;;;;;;;6.18;2.22;;;;;;;17.84;91.96;99988.31;4967394;28;20511;-77
2022/10/21 11:01:38;;;;;;;5.75;2.00;;;;;;;17.84;91.91;99995.72;4978572;28;20415;-77
2022/10/21 11:04:15;;;;;;;3.80;2.08;;;;;;;17.84;91.66;99985.56;4978718;28;20491;-77
2022/10/21 11:06:46;;;;;;;4.10;1.90;;;;;;;17.95;91.21;99983.41;4986871;28;20923;-76
2022/10/21 11:09:12;;;;;;;5.15;2.10;;;;;;;18.02;90.73;99981.09;4982523;28;20513;-77
2022/10/21 11:11:43;;;;;;;6.77;2.23;;;;;;;18.07;90.49;99989.22;4984342;28;20476;-77
2022/10/21 11:14:35;;;;;;;3.87;2.10;;;;;;;18.17;90.50;99990.94;4969553;28;20468;-77
2022/10/21 11:17:29;;;;;;;6.10;2.07;;;;;;;18.20;90.07;99993.06;4985092;28;20761;-77
2022/10/21 11:19:59;;;;;;;6.60;2.28;;;;;;;18.10;90.14;100000.41;4991542;28;20410;-76
2022/10/21 11:22:43;;;;;;;3.22;1.85;;;;;;;18.10;90.36;99994.09;4990321;28;20422;-77
2022/10/21 11:25:38;;;;;;;9.07;2.97;;;;;;;18.17;90.07;99994.50;4988120;28;20412;-77
2022/10/21 11:28:32;;;;;;;4.03;1.70;;;;;;;18.20;90.06;99996.63;4983712;28;20452;-77
2022/10/21 11:34:46;;;;;;;3.75;1.95;;;;;;;18.29;89.63;99996.72;4985999;28;20427;-76
2022/10/21 11:37:23;;;;;;;3.03;1.98;;;;;;;18.26;89.78;99989.09;4983122;28;20411;-76
2022/10/21 11:40:17;;;;;;;3.72;1.65;;;;;;;18.25;89.94;99980.06;4993008;28;20416;-76
2022/10/21 11:42:46;;;;;;;6.18;1.85;;;;;;;18.31;89.54;99969.81;4990937;28;20407;-77
2022/10/21 11:45:37;;;;;;;5.40;2.17;;;;;;;18.39;89.31;99975.38;4984379;28;20771;-77
2022/10/21 11:48:17;;;;;;;3.15;1.58;;;;;;;18.43;88.89;99981.88;4979115;28;20456;-76
2022/10/21 11:54:35;;;;;;;5.22;1.50;;;;;;;18.53;88.26;99989.09;4992097;28;20409;-76
2022/10/21 11:57:13;;;;;;;5.13;1.80;;;;;;;18.56;87.74;99988.47;4993425;28;20399;-76
2022/10/21 12:00:16;;;;;;;3.20;1.50;;;;;;;18.54;87.44;99987.97;4986098;28;20469;-76
2022/10/21 12:02:42;;;;;;;9.67;1.57;;;;;;;18.53;87.40;99987.16;4959213;28;20898;-76